Time;durP1;ratioP1;P1;durP2;ratioP2;P2;SDS_P1;SDS_P2;PMS_P1;PMS_P2;Temp;Humidity;BMP_temperature;BMP_pressure;BME280_temperature;BME280_humidity;BME280_pressure;Samples;Min_cycle;Max_cycle;Signal;HPM_P1;HPM_P2
2021/01/19 00:02:01;;;;;;;21.95;9.95;;;;;;;-11.76;55.94;99916.84;5012783;28;20524;-72
2021/01/19 00:04:26;;;;;;;19.75;8.90;;;;;;;-11.75;56.19;99906.56;5012610;28;20553;-72
2021/01/19 00:06:52;;;;;;;24.77;9.27;;;;;;;-11.73;55.95;99904.84;5011861;28;20524;-71
2021/01/19 00:09:17;;;;;;;22.17;9.38;;;;;;;-11.71;56.04;99902.25;5012613;28;20108;-73
2021/01/19 00:11:43;;;;;;;28.38;11.35;;;;;;;-11.69;55.83;99906.63;5012442;28;20037;-74
2021/01/19 00:14:08;;;;;;;29.55;12.35;;;;;;;-11.69;55.49;99905.75;5012186;28;20116;-75
2021/01/19 00:16:34;;;;;;;30.67;12.77;;;;;;;-11.76;55.87;99885.84;5011980;28;20536;-77
2021/01/19 00:18:59;;;;;;;25.95;10.13;;;;;;;-11.77;55.59;99884.13;5012719;28;20486;-73
2021/01/19 00:21:25;;;;;;;35.45;12.80;;;;;;;-11.65;55.29;99892.03;5011813;28;20349;-74
2021/01/19 00:23:50;;;;;;;42.80;13.68;;;;;;;-12.07;55.67;99837.34;5011283;28;20034;-76
2021/01/19 00:26:15;;;;;;;30.00;13.15;;;;;;;-11.72;55.63;99895.38;5012122;28;20068;-74
2021/01/19 00:28:41;;;;;;;30.85;13.07;;;;;;;-11.66;55.66;99899.75;5012120;28;20048;-74
2021/01/19 00:31:08;;;;;;;33.45;13.23;;;;;;;-11.84;55.78;99898.69;5011977;28;20494;-75
2021/01/19 00:33:34;;;;;;;32.65;12.95;;;;;;;-11.67;55.57;99906.66;5011675;28;20022;-75
2021/01/19 00:35:59;;;;;;;34.05;13.50;;;;;;;-11.62;55.73;99904.09;5011412;28;20439;-70
2021/01/19 00:38:25;;;;;;;35.70;14.27;;;;;;;-11.59;55.30;99914.44;5011808;28;20057;-73
2021/01/19 00:40:50;;;;;;;32.83;14.38;;;;;;;-11.59;55.37;99904.13;5011385;28;20421;-74
2021/01/19 00:43:15;;;;;;;41.05;15.38;;;;;;;-11.53;55.34;99906.78;5011493;28;20037;-74
2021/01/19 00:45:41;;;;;;;29.73;12.60;;;;;;;-11.58;55.53;99918.78;5012183;28;20517;-74
2021/01/19 00:48:07;;;;;;;30.90;12.10;;;;;;;-11.84;55.79;99859.94;5014291;28;20029;-73
2021/01/19 00:50:33;;;;;;;26.58;10.65;;;;;;;-11.78;56.11;99888.44;5012270;28;20037;-73
2021/01/19 00:52:58;;;;;;;21.10;8.93;;;;;;;-11.61;56.52;99898.06;5011177;28;20033;-74
2021/01/19 00:55:24;;;;;;;20.48;8.05;;;;;;;-11.60;56.27;99902.38;5010446;28;20053;-75
2021/01/19 00:57:49;;;;;;;22.00;8.93;;;;;;;-11.66;56.47;99895.47;5011925;28;20029;-73
2021/01/19 01:00:16;;;;;;;23.02;9.00;;;;;;;-11.60;56.10;99907.56;5011432;28;20026;-74
2021/01/19 01:02:42;;;;;;;18.38;9.23;;;;;;;-11.60;56.33;99910.13;5011069;28;20034;-73
2021/01/19 01:05:08;;;;;;;25.73;10.32;;;;;;;-11.60;56.42;99905.84;5015847;28;20116;-74
2021/01/19 01:07:38;;;;;;;22.55;11.15;;;;;;;-11.74;56.36;99879.88;5012013;28;20073;-72
2021/01/19 01:10:07;;;;;;;22.38;11.02;;;;;;;-11.55;56.38;99911.94;5011620;28;20111;-72
2021/01/19 01:12:33;;;;;;;23.77;10.82;;;;;;;-11.54;56.49;99926.59;5011113;28;20453;-74
2021/01/19 01:14:59;;;;;;;22.58;11.05;;;;;;;-11.76;56.40;99873.81;5011729;28;20058;-73
2021/01/19 01:17:24;;;;;;;29.20;11.90;;;;;;;-11.69;55.95;99882.50;5011433;28;20041;-74
2021/01/19 01:19:50;;;;;;;27.00;11.20;;;;;;;-11.53;56.51;99904.22;5010826;28;20053;-73
2021/01/19 01:22:15;;;;;;;27.85;12.05;;;;;;;-11.80;56.13;99851.41;5010650;28;20374;-75
2021/01/19 01:24:41;;;;;;;31.25;13.45;;;;;;;-11.54;56.48;99894.72;5010712;28;20042;-73
2021/01/19 01:27:06;;;;;;;30.13;13.40;;;;;;;-11.58;56.30;99898.09;5010808;28;20076;-69
2021/01/19 01:29:32;;;;;;;31.30;13.98;;;;;;;-11.55;56.35;99903.34;5011206;28;20461;-73
2021/01/19 01:31:58;;;;;;;27.30;12.57;;;;;;;-11.55;56.67;99900.75;5010788;28;20026;-73
2021/01/19 01:34:23;;;;;;;31.00;13.07;;;;;;;-11.55;56.64;99901.59;5010378;28;20029;-74
2021/01/19 01:36:49;;;;;;;34.33;12.68;;;;;;;-11.55;56.62;99893.00;5010594;28;20136;-73
2021/01/19 01:39:14;;;;;;;31.00;12.88;;;;;;;-11.64;56.43;99880.84;5010380;28;20140;-74
2021/01/19 01:41:40;;;;;;;29.08;13.05;;;;;;;-11.49;56.25;99900.81;5011140;28;20054;-74
2021/01/19 01:44:05;;;;;;;27.60;12.73;;;;;;;-11.53;56.33;99893.88;5010381;28;20117;-67
2021/01/19 01:46:34;;;;;;;26.95;12.32;;;;;;;-11.51;56.64;99896.47;5010738;28;20037;-73
2021/01/19 01:49:00;;;;;;;34.88;13.77;;;;;;;-11.45;56.38;99902.56;5010935;28;20096;-71
2021/01/19 01:51:27;;;;;;;28.90;12.45;;;;;;;-11.46;56.28;99880.16;5011038;28;20486;-73
2021/01/19 01:53:55;;;;;;;26.73;11.63;;;;;;;-11.43;56.21;99897.41;5010535;28;20489;-74
2021/01/19 01:56:20;;;;;;;24.73;11.82;;;;;;;-11.43;56.38;99877.59;5011156;28;20056;-73
2021/01/19 01:58:46;;;;;;;26.17;11.23;;;;;;;-12.07;56.27;99765.06;5010914;28;20136;-74
2021/01/19 02:01:12;;;;;;;22.95;10.40;;;;;;;-11.33;56.59;99882.84;5010309;28;20033;-75
2021/01/19 02:03:38;;;;;;;24.30;11.18;;;;;;;-11.33;56.43;99882.84;5010563;28;20601;-75
2021/01/19 02:06:04;;;;;;;23.75;10.32;;;;;;;-12.62;56.62;99665.59;5009384;28;20038;-73
2021/01/19 02:08:44;;;;;;;22.00;9.77;;;;;;;-11.31;56.39;99886.34;5010097;28;20049;-76
2021/01/19 02:11:13;;;;;;;24.65;9.45;;;;;;;-11.32;56.48;99877.69;5010340;28;20045;-74
2021/01/19 02:13:49;;;;;;;22.17;9.43;;;;;;;-11.32;56.72;99894.94;5010909;28;20037;-74
2021/01/19 02:16:32;;;;;;;20.70;9.30;;;;;;;-11.30;56.55;99877.72;5010521;28;20092;-75
2021/01/19 02:19:25;;;;;;;18.98;8.82;;;;;;;-11.31;56.09;99879.44;5009675;28;20083;-73
2021/01/19 02:22:00;;;;;;;20.08;9.65;;;;;;;-11.34;56.49;99879.41;5010698;28;20045;-73
2021/01/19 02:24:33;;;;;;;19.23;9.55;;;;;;;-11.37;56.60;99889.72;5011084;28;20088;-72
2021/01/19 02:26:59;;;;;;;19.73;9.80;;;;;;;-11.37;56.52;99879.38;5010534;28;20037;-74
2021/01/19 02:30:01;;;;;;;25.75;10.93;;;;;;;-11.31;56.78;99879.44;5010106;28;20034;-74
2021/01/19 02:33:00;;;;;;;21.65;10.52;;;;;;;-11.29;56.48;99887.22;5010743;28;20509;-74
2021/01/19 02:35:31;;;;;;;21.77;10.80;;;;;;;-11.55;56.21;99834.41;5010352;28;20041;-75
2021/01/19 02:38:28;;;;;;;24.33;11.77;;;;;;;-11.27;56.45;99881.19;5010140;28;20042;-72
2021/01/19 02:40:56;;;;;;;25.13;12.07;;;;;;;-11.27;56.28;99872.59;5010191;28;20107;-71
2021/01/19 02:43:25;;;;;;;27.38;12.77;;;;;;;-11.26;56.50;99885.50;5010456;28;20037;-70
2021/01/19 02:45:54;;;;;;;27.38;12.45;;;;;;;-11.21;56.60;99871.75;5013822;28;20092;-72
2021/01/19 02:48:21;;;;;;;25.95;12.82;;;;;;;-11.16;56.50;99878.69;5013466;28;20036;-72
2021/01/19 02:50:47;;;;;;;26.45;13.30;;;;;;;-11.14;56.38;99884.75;5014066;28;20026;-73
2021/01/19 02:53:14;;;;;;;25.83;13.43;;;;;;;-11.10;56.54;99875.31;5014379;28;20401;-72
2021/01/19 02:55:41;;;;;;;32.63;14.93;;;;;;;-11.17;56.24;99873.53;5013847;28;20116;-66
2021/01/19 02:58:19;;;;;;;29.95;13.98;;;;;;;-11.59;56.15;99782.69;5013891;28;20041;-72
2021/01/19 03:01:01;;;;;;;31.40;15.23;;;;;;;-11.10;56.41;99850.31;5014036;28;20116;-71
2021/01/19 03:03:32;;;;;;;25.75;13.85;;;;;;;-11.00;56.16;99871.94;5013988;28;20038;-70
2021/01/19 03:06:06;;;;;;;27.50;13.98;;;;;;;-11.07;56.23;99854.66;5013389;28;20037;-71
2021/01/19 03:08:34;;;;;;;23.77;12.52;;;;;;;-11.01;56.24;99870.19;5011974;28;20064;-72
2021/01/19 03:11:03;;;;;;;26.58;13.55;;;;;;;-11.03;56.26;99871.06;5013666;28;20214;-70
2021/01/19 03:13:30;;;;;;;29.13;14.15;;;;;;;-11.06;56.49;99865.88;5012493;28;20034;-70
2021/01/19 03:16:09;;;;;;;29.13;14.30;;;;;;;-11.20;56.57;99845.94;5013153;28;20069;-70
2021/01/19 03:18:36;;;;;;;26.50;12.55;;;;;;;-11.14;56.60;99874.41;5013305;28;20038;-69
2021/01/19 03:21:04;;;;;;;29.20;12.75;;;;;;;-11.16;56.67;99865.78;5013051;28;20401;-72
2021/01/19 03:23:29;;;;;;;24.92;12.90;;;;;;;-11.13;56.65;99862.38;5013127;28;20060;-71
2021/01/19 03:25:55;;;;;;;23.70;12.05;;;;;;;-11.37;56.77;99819.06;5012839;28;20046;-71
2021/01/19 03:28:20;;;;;;;32.90;14.20;;;;;;;-11.14;56.80;99870.97;5012477;28;20034;-71
2021/01/19 03:30:46;;;;;;;28.92;14.18;;;;;;;-11.12;56.90;99877.03;5013174;28;20164;-71
2021/01/19 03:33:11;;;;;;;31.38;14.43;;;;;;;-11.11;56.57;99864.09;5012582;28;20037;-62
2021/01/19 03:35:39;;;;;;;28.77;13.30;;;;;;;-11.22;56.72;99859.69;5012647;28;20405;-70
2021/01/19 03:38:06;;;;;;;29.98;14.02;;;;;;;-11.08;56.62;99862.41;5011747;28;20029;-70
2021/01/19 03:40:31;;;;;;;26.50;13.00;;;;;;;-11.10;56.61;99870.13;5012857;28;20496;-69
2021/01/19 03:42:57;;;;;;;26.88;13.20;;;;;;;-11.59;56.88;99770.66;5011026;28;20046;-67
2021/01/19 03:45:22;;;;;;;27.70;12.90;;;;;;;-11.10;56.58;99858.06;5012743;28;20034;-70
2021/01/19 03:47:48;;;;;;;31.20;14.30;;;;;;;-11.04;56.56;99861.56;5012348;28;20029;-69
2021/01/19 03:50:13;;;;;;;34.45;15.30;;;;;;;-11.04;56.62;99854.66;5011921;28;20025;-69
2021/01/19 03:52:39;;;;;;;30.42;14.90;;;;;;;-11.77;56.71;99727.47;5013036;28;20045;-70
2021/01/19 03:55:05;;;;;;;34.03;16.25;;;;;;;-11.01;56.67;99856.41;5011978;28;20480;-69
2021/01/19 03:57:30;;;;;;;33.80;16.33;;;;;;;-11.00;56.63;99860.75;5010311;28;20552;-71
2021/01/19 03:59:56;;;;;;;38.05;17.67;;;;;;;-10.99;56.56;99857.28;5012817;28;20042;-66
2021/01/19 04:02:21;;;;;;;45.65;19.15;;;;;;;-10.99;56.80;99854.72;5012253;28;20124;-70
2021/01/19 04:04:48;;;;;;;38.10;17.02;;;;;;;-11.34;56.10;99794.13;5011572;28;20033;-71
2021/01/19 04:07:14;;;;;;;36.33;17.13;;;;;;;-10.97;56.56;99855.59;5012050;28;20458;-68
2021/01/19 04:09:40;;;;;;;43.75;17.08;;;;;;;-10.99;56.24;99837.47;5012833;28;20083;-66
2021/01/19 04:12:05;;;;;;;40.72;18.20;;;;;;;-10.97;56.57;99843.53;5011748;28;20038;-72
2021/01/19 04:14:31;;;;;;;34.40;16.38;;;;;;;-10.91;55.97;99862.53;5011874;28;20037;-71
2021/01/19 04:16:56;;;;;;;39.03;17.15;;;;;;;-10.94;56.30;99860.78;5012359;28;20104;-70
2021/01/19 04:19:21;;;;;;;32.55;16.75;;;;;;;-11.00;55.86;99835.72;5012468;28;20037;-71
2021/01/19 04:21:47;;;;;;;38.25;16.33;;;;;;;-11.75;55.85;99707.69;5011815;28;20045;-70
2021/01/19 04:24:12;;;;;;;36.10;17.23;;;;;;;-10.90;55.74;99846.16;5011981;28;20033;-72
2021/01/19 04:26:38;;;;;;;37.88;16.35;;;;;;;-10.90;55.80;99854.75;5012412;28;20061;-71
2021/01/19 04:29:03;;;;;;;40.20;17.60;;;;;;;-11.01;55.81;99833.16;5012358;28;20029;-68
2021/01/19 04:31:29;;;;;;;40.80;17.52;;;;;;;-10.82;55.94;99852.25;5011845;28;20041;-70
2021/01/19 04:33:54;;;;;;;39.75;15.60;;;;;;;-10.81;55.70;99861.72;5011687;28;20032;-71
2021/01/19 04:36:20;;;;;;;36.53;15.95;;;;;;;-10.83;55.91;99842.75;5012140;28;20044;-71
2021/01/19 04:38:45;;;;;;;42.78;16.50;;;;;;;-10.80;55.73;99847.09;5011881;28;20065;-68
2021/01/19 04:41:11;;;;;;;35.63;15.50;;;;;;;-10.77;55.51;99863.47;5012015;28;20045;-71
2021/01/19 04:43:37;;;;;;;34.20;14.68;;;;;;;-11.30;55.95;99754.53;5011286;28;20030;-71
2021/01/19 04:46:05;;;;;;;39.85;15.40;;;;;;;-10.77;55.43;99854.88;5011739;28;20076;-70
2021/01/19 04:48:31;;;;;;;30.75;13.45;;;;;;;-10.84;55.47;99847.06;5011794;28;20049;-70
2021/01/19 04:50:58;;;;;;;31.77;15.25;;;;;;;-10.90;55.31;99847.00;5011508;28;20041;-68
2021/01/19 04:53:25;;;;;;;33.33;13.48;;;;;;;-10.87;55.33;99853.94;5011003;28;20057;-70
2021/01/19 04:55:58;;;;;;;31.52;12.20;;;;;;;-10.90;55.46;99844.41;5011390;28;20073;-72
2021/01/19 04:58:23;;;;;;;28.98;13.65;;;;;;;-10.92;55.50;99843.53;5010308;28;20034;-73
2021/01/19 05:01:07;;;;;;;33.90;13.68;;;;;;;-10.90;55.83;99851.34;5011294;28;20030;-71
2021/01/19 05:03:39;;;;;;;30.98;13.07;;;;;;;-10.90;55.47;99841.00;5011241;28;20116;-74
2021/01/19 05:06:57;;;;;;;27.67;11.90;;;;;;;-10.88;55.58;99839.28;5011288;28;20038;-71
2021/01/19 05:09:33;;;;;;;24.80;10.60;;;;;;;-10.83;55.12;99843.63;5017168;28;20087;-69
2021/01/19 05:12:03;;;;;;;27.88;12.07;;;;;;;-10.79;55.22;99856.59;5010796;28;20064;-71
2021/01/19 05:14:37;;;;;;;29.98;12.25;;;;;;;-11.36;55.29;99740.69;5010920;28;20490;-72
2021/01/19 05:17:02;;;;;;;28.55;12.13;;;;;;;-10.82;55.04;99839.31;5009244;28;20120;-65
2021/01/19 05:19:29;;;;;;;22.98;10.50;;;;;;;-10.72;54.99;99854.06;5008502;28;20549;-70
2021/01/19 05:21:55;;;;;;;21.92;9.93;;;;;;;-10.69;55.16;99837.66;5010125;28;20453;-71
2021/01/19 05:24:21;;;;;;;27.10;11.57;;;;;;;-10.67;54.94;99846.28;5010305;28;20042;-69
2021/01/19 05:26:47;;;;;;;22.30;10.65;;;;;;;-10.69;54.97;99838.53;5011019;28;20500;-69
2021/01/19 05:29:12;;;;;;;26.55;10.45;;;;;;;-10.85;54.85;99816.00;5010370;28;20088;-69
2021/01/19 05:31:38;;;;;;;25.98;10.98;;;;;;;-10.64;54.73;99848.91;5010566;28;20033;-67
2021/01/19 05:34:10;;;;;;;26.10;10.63;;;;;;;-10.63;54.88;99849.78;5010795;28;20042;-70
2021/01/19 05:36:36;;;;;;;20.95;10.02;;;;;;;-10.59;54.59;99851.53;5010365;28;20103;-73
2021/01/19 05:39:04;;;;;;;20.35;9.52;;;;;;;-10.57;54.30;99850.69;5017339;28;20061;-67
2021/01/19 05:41:40;;;;;;;23.65;9.35;;;;;;;-10.51;54.51;99861.94;5019801;28;20533;-70
2021/01/19 05:44:12;;;;;;;22.83;9.85;;;;;;;-10.47;54.73;99853.31;5019569;28;20374;-70
2021/01/19 05:47:04;;;;;;;24.67;10.43;;;;;;;-10.41;54.41;99861.09;5017400;28;20037;-69
2021/01/19 05:49:32;;;;;;;20.42;8.90;;;;;;;-10.41;54.40;99858.53;5020679;28;20030;-73
2021/01/19 05:52:08;;;;;;;22.88;9.05;;;;;;;-10.43;54.43;99858.53;5033417;28;20526;-65
2021/01/19 05:54:35;;;;;;;17.77;8.68;;;;;;;-10.61;54.62;99833.41;5017421;28;20025;-65
2021/01/19 05:57:03;;;;;;;20.38;8.63;;;;;;;-10.41;54.36;99863.69;5019627;28;20048;-67
2021/01/19 05:59:34;;;;;;;23.15;9.27;;;;;;;-10.29;54.17;99868.91;5010008;28;20048;-67
2021/01/19 06:02:06;;;;;;;23.20;8.23;;;;;;;-10.27;54.00;99869.78;5008569;28;20073;-68
2021/01/19 06:04:37;;;;;;;21.38;9.05;;;;;;;-10.29;53.92;99866.34;5010316;28;20040;-71
2021/01/19 06:07:04;;;;;;;16.15;8.02;;;;;;;-10.32;53.83;99855.97;5012411;28;20065;-67
2021/01/19 06:09:30;;;;;;;18.10;7.63;;;;;;;-10.86;53.71;99766.00;5009806;28;20502;-66
2021/01/19 06:11:57;;;;;;;23.17;8.32;;;;;;;-10.21;54.18;99868.09;5008879;28;20065;-69
2021/01/19 06:14:24;;;;;;;18.15;6.97;;;;;;;-10.15;53.61;99881.94;5010660;28;20030;-70
2021/01/19 06:16:50;;;;;;;17.42;7.57;;;;;;;-10.15;53.69;99876.75;5009886;28;20040;-53
2021/01/19 06:19:29;;;;;;;15.13;7.15;;;;;;;-10.29;53.32;99836.97;5011136;28;20041;-69
2021/01/19 06:21:55;;;;;;;16.55;7.93;;;;;;;-10.57;53.54;99782.53;5014519;28;20068;-67
2021/01/19 06:24:37;;;;;;;14.85;7.38;;;;;;;-9.92;53.14;99886.34;5013270;28;20663;-68
2021/01/19 06:27:04;;;;;;;18.27;8.40;;;;;;;-9.76;53.14;99874.31;5017306;28;20040;-69
2021/01/19 06:29:31;;;;;;;16.92;8.15;;;;;;;-9.67;52.69;99884.69;5027240;28;20122;-70
2021/01/19 06:32:01;;;;;;;19.92;8.25;;;;;;;-9.64;52.80;99875.19;5018927;28;20109;-71
2021/01/19 06:34:46;;;;;;;22.77;8.93;;;;;;;-9.58;52.77;99876.06;5014202;28;20136;-71
2021/01/19 06:37:24;;;;;;;19.20;9.07;;;;;;;-10.23;52.46;99754.19;5013327;28;20169;-70
2021/01/19 06:40:02;;;;;;;19.35;8.95;;;;;;;-9.42;52.46;99878.72;5014182;28;20050;-71
2021/01/19 06:42:30;;;;;;;25.55;9.23;;;;;;;-9.41;52.54;99885.63;5013172;28;20037;-71
2021/01/19 06:44:58;;;;;;;21.50;9.85;;;;;;;-9.39;52.72;99884.78;5014367;28;20060;-71
2021/01/19 06:47:24;;;;;;;24.25;10.20;;;;;;;-10.32;52.59;99716.19;5013610;28;20033;-72
2021/01/19 06:49:51;;;;;;;21.60;9.68;;;;;;;-9.37;52.49;99880.47;5013931;28;20517;-71
2021/01/19 06:52:18;;;;;;;19.90;9.45;;;;;;;-9.27;52.38;99877.88;5014404;28;20092;-72
2021/01/19 06:54:46;;;;;;;23.00;10.60;;;;;;;-9.20;52.45;99882.19;5014108;28;20041;-70
2021/01/19 06:57:31;;;;;;;25.70;10.60;;;;;;;-9.14;52.35;99884.81;5013216;28;20470;-71
2021/01/19 07:00:20;;;;;;;27.13;10.73;;;;;;;-9.07;52.52;99888.25;5013347;28;20037;-70
2021/01/19 07:02:47;;;;;;;21.35;9.55;;;;;;;-9.09;52.27;99870.09;5013890;28;20061;-70
2021/01/19 07:05:16;;;;;;;25.10;10.60;;;;;;;-8.99;52.14;99898.63;5013362;28;20038;-70
2021/01/19 07:07:42;;;;;;;26.50;9.30;;;;;;;-8.92;52.13;99884.81;5012930;28;20029;-70
2021/01/19 07:10:15;;;;;;;25.80;9.77;;;;;;;-8.88;52.08;99878.75;5012899;28;20517;-69
2021/01/19 07:13:03;;;;;;;21.63;10.15;;;;;;;-8.91;51.73;99865.78;5012985;28;20036;-67
2021/01/19 07:15:47;;;;;;;30.45;10.55;;;;;;;-8.73;52.03;99872.69;5013239;28;20087;-72
2021/01/19 07:18:17;;;;;;;20.55;9.27;;;;;;;-8.65;51.73;99889.13;5012849;28;20037;-72
2021/01/19 07:21:13;;;;;;;20.20;9.77;;;;;;;-8.52;51.37;99874.38;5013159;28;20409;-73
2021/01/19 07:23:44;;;;;;;24.20;10.25;;;;;;;-8.47;51.27;99870.88;5012367;28;20042;-64
2021/01/19 07:26:20;;;;;;;27.92;10.52;;;;;;;-8.52;51.32;99865.75;5012937;28;20049;-66
2021/01/19 07:29:00;;;;;;;20.73;9.75;;;;;;;-8.46;51.62;99859.63;5087956;27;20367;-68
2021/01/19 07:31:26;;;;;;;21.63;9.18;;;;;;;-8.39;51.37;99880.38;5087516;28;20040;-66
2021/01/19 07:33:54;;;;;;;21.85;9.73;;;;;;;-8.47;51.48;99844.91;5087709;28;20036;-64
2021/01/19 07:36:22;;;;;;;21.50;9.23;;;;;;;-8.64;51.30;99812.13;5088023;28;20487;-66
2021/01/19 07:38:49;;;;;;;24.00;9.55;;;;;;;-8.29;51.09;99877.78;5086861;28;20034;-66
2021/01/19 07:41:29;;;;;;;19.08;8.27;;;;;;;-8.26;51.30;99876.00;5087274;28;20059;-70
2021/01/19 07:43:55;;;;;;;24.23;9.57;;;;;;;-8.18;51.48;99856.97;5088017;28;20036;-63
2021/01/19 07:46:24;;;;;;;20.63;9.15;;;;;;;-8.14;51.05;99850.88;5087355;28;20039;-68
2021/01/19 07:49:04;;;;;;;21.08;7.75;;;;;;;-7.90;51.12;99867.25;5087107;28;20043;-68
2021/01/19 07:51:47;;;;;;;17.02;7.28;;;;;;;-7.75;50.46;99874.94;5087959;28;20123;-66
2021/01/19 07:54:35;;;;;;;18.30;6.90;;;;;;;-7.97;50.37;99804.88;5087098;28;20085;-68
2021/01/19 07:57:16;;;;;;;21.70;6.85;;;;;;;-7.53;50.11;99854.91;5086907;28;20032;-66
2021/01/19 07:59:43;;;;;;;13.80;7.45;;;;;;;-7.49;50.33;99871.34;5087437;28;20036;-67
2021/01/19 08:02:20;;;;;;;21.30;7.82;;;;;;;-7.44;50.33;99863.53;5087021;28;20029;-68
2021/01/19 08:04:45;;;;;;;24.70;10.57;;;;;;;-7.47;50.43;99833.22;5086609;28;20039;-68
2021/01/19 08:07:18;;;;;;;21.10;10.13;;;;;;;-7.17;50.17;99853.78;5086783;28;20032;-70
2021/01/19 08:09:44;;;;;;;28.95;12.95;;;;;;;-7.48;50.08;99774.25;5087310;28;20527;-70
2021/01/19 08:12:12;;;;;;;29.58;15.07;;;;;;;-6.87;49.85;99852.69;5086626;28;20036;-71
2021/01/19 08:14:45;;;;;;;35.33;15.60;;;;;;;-6.79;49.13;99858.69;5086314;28;20028;-70
2021/01/19 08:17:12;;;;;;;35.50;17.25;;;;;;;-6.89;49.27;99812.78;5086885;28;20136;-69
2021/01/19 08:19:43;;;;;;;43.33;18.90;;;;;;;-6.58;48.95;99851.56;5087272;28;20200;-71
2021/01/19 08:22:09;;;;;;;39.97;18.80;;;;;;;-6.43;49.14;99852.28;5086811;28;20044;-70
2021/01/19 08:24:35;;;;;;;46.65;20.05;;;;;;;-6.40;49.02;99858.31;5086397;28;20028;-71
2021/01/19 08:27:00;;;;;;;46.80;20.75;;;;;;;-6.52;49.33;99827.19;5086662;28;20420;-69
2021/01/19 08:29:27;;;;;;;41.63;19.83;;;;;;;-6.38;48.80;99864.38;5087240;28;20496;-69
2021/01/19 08:31:58;;;;;;;50.88;21.98;;;;;;;-6.36;49.20;99843.50;5086633;28;20119;-71
2021/01/19 08:34:26;;;;;;;43.67;21.40;;;;;;;-6.30;48.94;99846.03;5086596;28;20040;-70
2021/01/19 08:36:52;;;;;;;53.60;22.23;;;;;;;-6.38;48.62;99847.88;5086495;28;20036;-72
2021/01/19 08:39:19;;;;;;;53.50;23.10;;;;;;;-6.24;48.59;99842.50;5079036;28;20035;-64
2021/01/19 08:41:46;;;;;;;53.20;21.58;;;;;;;-6.26;48.20;99852.09;5071808;28;20036;-67
2021/01/19 08:44:12;;;;;;;42.22;21.27;;;;;;;-6.27;48.77;99843.44;5063183;28;20102;-75
2021/01/19 08:46:39;;;;;;;42.47;19.83;;;;;;;-6.17;48.82;99846.75;5069304;28;20112;-75
2021/01/19 08:49:12;;;;;;;46.10;20.95;;;;;;;-6.58;47.87;99755.19;5068152;28;20052;-68
2021/01/19 08:51:43;;;;;;;46.03;21.25;;;;;;;-6.02;47.93;99845.75;5067001;28;20077;-67
2021/01/19 08:54:09;;;;;;;49.95;23.27;;;;;;;-6.03;47.79;99827.50;5078199;28;20068;-71
2021/01/19 08:56:42;;;;;;;45.33;21.20;;;;;;;-5.98;47.84;99844.78;5077353;28;20024;-57
2021/01/19 08:59:12;;;;;;;41.95;20.85;;;;;;;-6.01;47.91;99837.03;5074938;28;20132;-65
2021/01/19 09:01:53;;;;;;;43.83;21.27;;;;;;;-5.89;47.90;99835.13;5063849;28;20423;-66
2021/01/19 09:04:26;;;;;;;45.58;23.13;;;;;;;-5.90;47.34;99831.66;5078851;28;20127;-73
2021/01/19 09:06:53;;;;;;;45.65;21.90;;;;;;;-5.82;47.80;99839.34;5075216;28;20024;-70
2021/01/19 09:09:20;;;;;;;51.15;22.00;;;;;;;-5.81;48.17;99838.47;5088249;28;20035;-65
2021/01/19 09:11:46;;;;;;;49.60;21.38;;;;;;;-5.88;47.90;99826.41;5068023;28;20039;-64
2021/01/19 09:14:12;;;;;;;51.38;23.10;;;;;;;-5.84;48.27;99839.41;5081919;28;20032;-71
2021/01/19 09:16:39;;;;;;;43.47;20.50;;;;;;;-5.85;47.82;99836.78;5077723;28;20025;-69
2021/01/19 09:19:07;;;;;;;47.28;22.05;;;;;;;-5.86;47.68;99835.06;5085894;28;20036;-64
2021/01/19 09:21:33;;;;;;;43.03;19.95;;;;;;;-5.88;47.77;99832.50;5067476;28;20132;-71
2021/01/19 09:24:00;;;;;;;44.30;21.13;;;;;;;-5.87;48.13;99841.16;5080734;28;20114;-64
2021/01/19 09:26:25;;;;;;;45.25;21.00;;;;;;;-6.10;47.40;99798.03;5079096;28;20036;-71
2021/01/19 09:28:51;;;;;;;44.30;19.55;;;;;;;-6.01;47.67;99816.19;5077206;28;20151;-71
2021/01/19 09:31:18;;;;;;;39.88;19.85;;;;;;;-6.09;47.74;99798.03;5070395;28;20487;-61
2021/01/19 09:33:49;;;;;;;46.72;20.05;;;;;;;-6.02;47.91;99808.38;5078010;28;20028;-68
2021/01/19 09:36:15;;;;;;;35.63;17.27;;;;;;;-5.91;47.69;99820.34;5079930;28;20068;-71
2021/01/19 09:38:42;;;;;;;36.47;18.33;;;;;;;-5.86;47.75;99824.63;5071712;28;20054;-67
2021/01/19 09:41:12;;;;;;;37.53;18.15;;;;;;;-5.86;48.00;99830.72;5087657;28;20054;-65
2021/01/19 09:43:39;;;;;;;35.60;16.90;;;;;;;-5.83;47.70;99838.50;5071103;28;20028;-67
2021/01/19 09:46:08;;;;;;;35.00;17.17;;;;;;;-5.95;47.51;99815.19;5081503;28;20377;-64
2021/01/19 09:48:36;;;;;;;38.60;18.65;;;;;;;-5.90;47.78;99816.03;5085105;28;20042;-68
2021/01/19 09:51:03;;;;;;;44.67;18.45;;;;;;;-5.90;47.76;99829.06;5073525;28;20075;-67
2021/01/19 09:53:32;;;;;;;42.97;19.27;;;;;;;-5.90;48.04;99831.66;5086610;28;20025;-64
2021/01/19 09:56:12;;;;;;;37.78;19.33;;;;;;;-5.88;48.12;99832.50;5073563;28;20040;-56
2021/01/19 09:58:38;;;;;;;37.20;18.90;;;;;;;-5.85;47.86;99828.97;5085116;28;20028;-64
2021/01/19 10:01:04;;;;;;;46.20;19.63;;;;;;;-5.91;47.90;99817.75;5073782;28;20036;-64
2021/01/19 10:03:33;;;;;;;36.95;18.58;;;;;;;-5.91;47.86;99837.72;5086171;28;20035;-64
2021/01/19 10:06:06;;;;;;;37.83;19.30;;;;;;;-6.00;47.52;99817.88;5074539;28;20164;-60
2021/01/19 10:08:36;;;;;;;38.42;18.92;;;;;;;-6.36;47.96;99762.75;5077035;28;20105;-72
2021/01/19 10:11:01;;;;;;;34.38;18.90;;;;;;;-6.07;48.07;99837.09;5075794;28;20491;-66
2021/01/19 10:13:29;;;;;;;41.58;19.70;;;;;;;-6.18;48.26;99816.38;5070562;28;20046;-70
2021/01/19 10:16:05;;;;;;;43.25;20.48;;;;;;;-6.24;47.92;99829.47;5074878;28;20395;-58
2021/01/19 10:18:32;;;;;;;38.45;21.27;;;;;;;-6.36;48.26;99804.44;5075096;28;20029;-62
2021/01/19 10:20:58;;;;;;;45.10;21.63;;;;;;;-6.77;48.50;99733.72;5075444;28;20071;-62
2021/01/19 10:23:33;;;;;;;41.15;22.30;;;;;;;-6.36;47.78;99807.91;5079090;28;20059;-63
2021/01/19 10:26:11;;;;;;;;;;;;;;;-6.15;48.46;99807.66;5064679;28;20033;-64
2021/01/19 10:28:45;;;;;;;40.90;20.38;;;;;;;-6.61;48.01;99754.38;5074323;28;20364;-61
2021/01/19 10:31:22;;;;;;;38.22;19.95;;;;;;;-6.25;47.97;99813.00;5074350;28;20115;-65
2021/01/19 10:34:00;;;;;;;39.85;21.33;;;;;;;-6.28;48.01;99807.81;5073401;28;20101;-64
2021/01/19 10:36:26;;;;;;;44.22;22.08;;;;;;;-6.68;48.09;99745.75;5070726;28;20033;-64
2021/01/19 10:38:53;;;;;;;45.83;22.65;;;;;;;-6.49;48.46;99785.47;5073076;28;20036;-63
2021/01/19 10:41:28;;;;;;;41.65;21.80;;;;;;;-6.31;47.64;99801.78;5071446;28;20539;-62
2021/01/19 10:43:55;;;;;;;40.85;22.02;;;;;;;-6.33;48.10;99786.16;5067191;28;20501;-61
2021/01/19 10:46:23;;;;;;;41.80;21.80;;;;;;;-6.32;48.19;99784.44;5073564;28;20059;-65
2021/01/19 10:49:03;;;;;;;42.03;21.55;;;;;;;-6.32;47.94;99782.66;5066357;28;20074;-63
2021/01/19 10:51:29;;;;;;;39.80;20.67;;;;;;;-6.32;48.23;99779.22;5072086;28;20491;-61
2021/01/19 10:54:12;;;;;;;37.72;19.98;;;;;;;-6.27;48.46;99786.09;5063026;28;20044;-60
2021/01/19 10:56:40;;;;;;;32.78;17.98;;;;;;;-6.18;48.36;99789.47;5055435;28;20124;-62
2021/01/19 10:59:06;;;;;;;37.58;18.45;;;;;;;-6.20;48.34;99785.13;5064038;28;20105;-64
2021/01/19 11:01:33;;;;;;;34.05;16.98;;;;;;;-6.24;48.35;99778.25;5065137;28;20125;-63
2021/01/19 11:03:58;;;;;;;36.83;17.83;;;;;;;-6.45;48.90;99752.44;5061644;28;20939;-62
2021/01/19 11:06:31;;;;;;;37.63;16.55;;;;;;;-6.45;48.19;99750.69;5064913;28;20033;-62
2021/01/19 11:08:57;;;;;;;33.72;15.02;;;;;;;-6.33;48.35;99775.72;5067840;28;20488;-60
2021/01/19 11:11:22;;;;;;;34.50;15.07;;;;;;;-6.38;48.16;99764.50;5071521;28;20069;-64
2021/01/19 11:13:48;;;;;;;34.55;15.27;;;;;;;-6.43;48.60;99779.34;5074826;28;20479;-66
2021/01/19 11:16:13;;;;;;;31.55;14.88;;;;;;;-6.57;48.58;99750.84;5068207;28;20028;-64
2021/01/19 11:18:38;;;;;;;32.53;15.35;;;;;;;-6.67;48.61;99752.69;5072476;28;20040;-63
2021/01/19 11:21:05;;;;;;;29.48;14.95;;;;;;;-6.69;48.38;99759.66;5060581;28;20036;-62
2021/01/19 11:23:31;;;;;;;29.08;12.98;;;;;;;-6.82;48.59;99749.38;5066168;28;20573;-72
2021/01/19 11:25:57;;;;;;;31.48;15.55;;;;;;;-7.06;49.23;99727.91;5063775;28;20124;-69